This is the latest recevied weather packets stored in our database for station/object N6RDS. If no packets are shown the sender has not sent any weather packets the latest 10 day(s).
| Time | Temp. | Humidity | Pressure | Rain* | Wind** | Luminosity | Snow |
|---|---|---|---|---|---|---|---|
| 1777929225 | 14.44° C | 38% | 1021.7 hPa | 0 mm | - | 364 W/m² | - |
| 1777928923 | 14.44° C | 37% | 1021.5 hPa | 0 mm | - | 345 W/m² | - |
| 1777928620 | 14.44° C | 38% | 1021.6 hPa | 0 mm | - | 329 W/m² | - |
| 1777928317 | 15.56° C | 38% | 1021.3 hPa | 0 mm | - | 384 W/m² | - |
| 1777928015 | 14.44° C | 38% | 1021.7 hPa | 0 mm | - | 427 W/m² | - |
| 1777927713 | 15° C | 37% | 1021.7 hPa | 0 mm | - | 390 W/m² | - |
| 1777927411 | 15° C | 38% | 1022 hPa | 0 mm | - | 398 W/m² | - |
| 1777927110 | 15.56° C | 40% | 1022 hPa | 0 mm | - | 480 W/m² | - |
| 1777926806 | 15° C | 39% | 1022 hPa | 0 mm | - | 438 W/m² | - |
| 1777926502 | 15° C | 39% | 1021.8 hPa | 0 mm | - | 389 W/m² | - |
| 1777926200 | 15° C | 39% | 1021.7 hPa | 0 mm | - | 433 W/m² | - |
| 1777925896 | 15° C | 38% | 1022.1 hPa | 0 mm | - | 363 W/m² | - |
| 1777925594 | 15.56° C | 40% | 1021.7 hPa | 0 mm | - | 360 W/m² | - |
| 1777925291 | 16.11° C | 40% | 1021.3 hPa | 0 mm | - | 594 W/m² | - |
| 1777924987 | 16.11° C | 40% | 1021.7 hPa | 0 mm | - | 660 W/m² | - |
| 1777924683 | 16.11° C | 39% | 1022.1 hPa | 0 mm | - | 528 W/m² | - |
| 1777924379 | 15.56° C | 39% | 1022.1 hPa | 0 mm | - | 671 W/m² | - |
| 1777924076 | 14.44° C | 41% | 1021.7 hPa | 0 mm | - | 779 W/m² | - |
| 1777923773 | 15.56° C | 37% | 1021.5 hPa | 0 mm | - | 374 W/m² | - |
| 1777923469 | 15.56° C | 35% | 1021.6 hPa | 0 mm | - | 562 W/m² | - |
| 1777923166 | 16.11° C | 35% | 1021.7 hPa | 0 mm | - | 753 W/m² | - |
| 1777922865 | 16.67° C | 33% | 1021.6 hPa | 0 mm | - | 324 W/m² | - |
| 1777922562 | 16.11° C | 36% | 1021.6 hPa | 0 mm | - | 580 W/m² | - |
| 1777922261 | 15.56° C | 36% | 1021.5 hPa | 0 mm | - | 482 W/m² | - |
| 1777921957 | 16.11° C | 36% | 1022.1 hPa | 0 mm | - | 610 W/m² | - |
* Rain latest hour (hover to see other rain measurements)
** Current wind speed in m/s (hover to see current wind gust speed)